createdAt,value
2019-02-10T00:06:24.822Z,7.60
2019-02-10T00:16:25.631Z,7.60
2019-02-10T00:26:30.244Z,7.71
2019-02-10T00:36:33.289Z,7.61
2019-02-10T00:46:36.968Z,7.34
2019-02-10T00:56:39.824Z,7.22
2019-02-10T01:06:49.034Z,7.27
2019-02-10T01:16:47.474Z,7.35
2019-02-10T01:26:48.208Z,7.24
2019-02-10T01:36:51.975Z,7.14
2019-02-10T01:46:53.858Z,7.32
2019-02-10T01:56:54.567Z,7.35
2019-02-10T02:06:57.943Z,7.31
2019-02-10T02:16:59.797Z,7.12
2019-02-10T02:27:00.862Z,7.12
2019-02-10T02:37:07.939Z,7.03
2019-02-10T02:47:11.834Z,6.96
2019-02-10T02:57:12.488Z,6.92
2019-02-10T03:07:18.173Z,6.96
2019-02-10T03:17:19.816Z,6.84
2019-02-10T03:27:26.390Z,6.49
2019-02-10T03:37:27.631Z,6.21
2019-02-10T03:47:31.313Z,6.35
2019-02-10T03:57:32.049Z,6.50
2019-02-10T04:07:36.160Z,6.45
2019-02-10T04:17:35.594Z,6.53
2019-02-10T04:27:37.428Z,6.47
2019-02-10T04:37:45.298Z,6.46
2019-02-10T04:47:42.831Z,6.37
2019-02-10T04:57:44.706Z,6.43
2019-02-10T05:07:54.108Z,6.39
2019-02-10T05:17:48.109Z,6.47
2019-02-10T05:27:52.901Z,6.55
2019-02-10T05:37:54.051Z,6.70
2019-02-10T05:47:56.907Z,6.65
2019-02-10T05:57:57.982Z,6.65
2019-02-10T06:08:02.650Z,6.76
2019-02-10T06:18:03.769Z,6.98
2019-02-10T06:28:04.627Z,7.03
2019-02-10T06:38:06.443Z,7.12
2019-02-10T06:48:07.335Z,7.20
2019-02-10T06:58:11.152Z,7.20
2019-02-10T07:08:12.004Z,7.19
2019-02-10T07:18:44.871Z,7.22
2019-02-10T07:28:45.982Z,7.22
2019-02-10T07:38:59.517Z,7.31
2019-02-10T07:49:35.798Z,7.44
2019-02-10T07:59:47.364Z,7.58
2019-02-10T08:09:55.982Z,7.84
2019-02-10T08:20:04.257Z,7.95
2019-02-10T08:30:33.932Z,8.17
2019-02-10T08:40:50.602Z,8.30
2019-02-10T08:51:25.700Z,8.36
2019-02-10T09:01:26.495Z,8.43
2019-02-10T09:11:30.309Z,8.36
2019-02-10T09:21:30.986Z,8.59
2019-02-10T09:31:33.189Z,8.58
2019-02-10T09:41:34.198Z,8.53
2019-02-10T09:51:36.957Z,8.58
2019-02-10T10:01:37.832Z,8.58
2019-02-10T10:11:42.060Z,8.56
2019-02-10T10:21:43.006Z,8.68
2019-02-10T10:31:43.688Z,8.73
2019-02-10T10:41:44.617Z,8.72
2019-02-10T10:51:45.323Z,8.89
2019-02-10T11:01:46.152Z,8.93
2019-02-10T11:11:46.945Z,9.08
2019-02-10T11:21:49.798Z,9.16
2019-02-10T11:31:51.473Z,9.34
2019-02-10T11:41:52.272Z,9.23
2019-02-10T11:51:53.079Z,9.27
2019-02-10T12:01:53.815Z,9.15
2019-02-10T12:11:55.746Z,8.77
2019-02-10T12:21:57.443Z,9.21
2019-02-10T12:31:58.204Z,9.21
2019-02-10T12:41:59.092Z,9.26
2019-02-10T12:52:00.889Z,9.03
2019-02-10T13:02:03.791Z,8.93
2019-02-10T13:12:05.528Z,9.32
2019-02-10T13:22:08.296Z,9.40
2019-02-10T13:32:14.830Z,9.46
2019-02-10T13:42:16.090Z,9.86
2019-02-10T13:52:16.859Z,9.39
2019-02-10T14:02:18.683Z,8.71
2019-02-10T14:12:19.525Z,8.55
2019-02-10T14:22:20.224Z,8.57
2019-02-10T14:32:23.983Z,8.45
2019-02-10T14:42:25.724Z,8.39
2019-02-10T14:52:27.551Z,8.36
2019-02-10T15:02:28.437Z,8.19
2019-02-10T15:12:31.185Z,8.43
2019-02-10T15:22:31.957Z,8.34
2019-02-10T15:32:32.763Z,8.13
2019-02-10T15:42:33.435Z,7.87
2019-02-10T15:52:34.166Z,7.80
2019-02-10T16:02:36.616Z,7.62
2019-02-10T16:12:37.457Z,7.57
2019-02-10T16:22:38.304Z,7.50
2019-02-10T16:32:40.208Z,7.28
2019-02-10T16:42:45.085Z,7.26
2019-02-10T16:52:45.995Z,7.27
2019-02-10T17:02:46.710Z,7.13
2019-02-10T17:12:47.464Z,6.11
2019-02-10T17:22:53.323Z,8.52
2019-02-10T17:32:54.171Z,7.34
2019-02-10T17:42:54.976Z,5.62
2019-02-10T17:52:56.924Z,5.59
2019-02-10T18:02:57.764Z,5.56
2019-02-10T18:12:58.499Z,5.61
2019-02-10T18:23:00.299Z,5.59
2019-02-10T18:33:01.058Z,5.54
2019-02-10T18:43:09.803Z,5.47
2019-02-10T18:53:10.623Z,5.69
2019-02-10T19:03:11.551Z,5.82
2019-02-10T19:13:13.616Z,5.91
2019-02-10T19:23:14.530Z,5.97
2019-02-10T19:33:16.323Z,6.01
2019-02-10T19:43:17.175Z,5.96
2019-02-10T19:53:17.956Z,6.09
2019-02-10T20:03:21.515Z,5.92
2019-02-10T20:13:22.154Z,5.76
2019-02-10T20:23:22.918Z,5.19
2019-02-10T20:33:23.625Z,5.27
2019-02-10T20:43:24.510Z,5.17
2019-02-10T20:53:25.265Z,5.36
2019-02-10T21:03:26.028Z,5.45
2019-02-10T21:13:26.781Z,5.46
2019-02-10T21:23:30.757Z,5.19
2019-02-10T21:33:31.425Z,5.44
2019-02-10T21:43:32.197Z,5.06
2019-02-10T21:53:32.931Z,5.04
2019-02-10T22:03:36.965Z,4.89
2019-02-10T22:13:37.725Z,4.86
2019-02-10T22:23:38.800Z,4.95
2019-02-10T22:33:39.582Z,5.04
2019-02-10T22:43:40.383Z,4.52
2019-02-10T22:53:41.163Z,4.29
2019-02-10T23:03:41.935Z,4.06
2019-02-10T23:13:42.737Z,3.89
2019-02-10T23:23:43.475Z,3.82
2019-02-10T23:33:44.405Z,3.71
2019-02-10T23:43:45.205Z,3.61
